createdAt,value
2024-04-30T00:01:46.434Z,100.00
2024-04-30T00:04:17.103Z,100.00
2024-04-30T00:06:45.110Z,100.00
2024-04-30T00:09:15.622Z,100.00
2024-04-30T00:11:44.580Z,100.00
2024-04-30T00:14:15.261Z,100.00
2024-04-30T00:16:46.324Z,100.00
2024-04-30T00:19:17.093Z,100.00
2024-04-30T00:21:45.116Z,100.00
2024-04-30T00:24:15.685Z,100.00
2024-04-30T00:26:43.621Z,100.00
2024-04-30T00:29:14.178Z,100.00
2024-04-30T00:31:42.237Z,100.00
2024-04-30T00:34:15.548Z,100.00
2024-04-30T00:36:43.420Z,100.00
2024-04-30T00:39:13.905Z,100.00
2024-04-30T00:41:41.822Z,100.00
2024-04-30T00:44:12.497Z,100.00
2024-04-30T00:46:40.818Z,100.00
2024-04-30T00:49:14.451Z,100.00
2024-04-30T00:51:43.161Z,100.00
2024-04-30T00:54:14.520Z,100.00
2024-04-30T00:56:43.793Z,100.00
2024-04-30T00:59:14.560Z,100.00
2024-04-30T01:01:42.825Z,100.00
2024-04-30T01:04:16.143Z,100.00
2024-04-30T01:06:44.081Z,100.00
2024-04-30T01:09:14.741Z,100.00
2024-04-30T01:11:45.479Z,100.00
2024-04-30T01:14:16.083Z,100.00
2024-04-30T01:16:43.974Z,100.00
2024-04-30T01:19:17.366Z,100.00
2024-04-30T01:21:45.313Z,100.00
2024-04-30T01:24:18.453Z,100.00
2024-04-30T01:26:46.378Z,100.00
2024-04-30T01:29:16.888Z,100.00
2024-04-30T01:31:44.932Z,100.00
2024-04-30T01:34:15.518Z,100.00
2024-04-30T01:36:43.541Z,100.00
2024-04-30T01:39:14.065Z,100.00
2024-04-30T01:41:44.699Z,100.00
2024-04-30T01:44:15.226Z,100.00
2024-04-30T01:46:43.169Z,100.00
2024-04-30T01:49:13.831Z,100.00
2024-04-30T01:51:41.907Z,100.00
2024-04-30T01:54:13.310Z,100.00
2024-04-30T01:56:43.987Z,100.00
2024-04-30T01:59:14.528Z,100.00
2024-04-30T02:01:42.545Z,100.00
2024-04-30T02:04:13.158Z,100.00
2024-04-30T02:06:41.040Z,100.00
2024-04-30T02:09:12.454Z,100.00
2024-04-30T02:11:40.382Z,100.00
2024-04-30T02:14:13.707Z,100.00
2024-04-30T02:16:41.672Z,100.00
2024-04-30T02:19:12.244Z,100.00
2024-04-30T02:21:40.298Z,100.00
2024-04-30T02:24:11.291Z,100.00
2024-04-30T02:26:39.310Z,100.00
2024-04-30T02:29:12.537Z,100.00
2024-04-30T02:31:59.417Z,100.00
2024-04-30T02:34:30.320Z,100.00
2024-04-30T02:37:01.482Z,100.00
2024-04-30T02:39:32.614Z,100.00
2024-04-30T02:42:03.645Z,100.00
2024-04-30T02:44:36.928Z,100.00
2024-04-30T02:47:06.147Z,100.00
2024-04-30T02:49:36.810Z,100.00
2024-04-30T02:52:05.481Z,100.00
2024-04-30T02:54:36.087Z,100.00
2024-04-30T02:57:04.511Z,100.00
2024-04-30T02:59:38.221Z,100.00
2024-04-30T03:02:06.319Z,100.00
2024-04-30T03:04:36.918Z,100.00
2024-04-30T03:07:05.360Z,100.00
2024-04-30T03:09:36.148Z,100.00
2024-04-30T03:12:04.522Z,100.00
2024-04-30T03:14:37.813Z,100.00
2024-04-30T03:17:06.133Z,100.00
2024-04-30T03:19:37.582Z,100.00
2024-04-30T03:22:06.025Z,100.00
2024-04-30T03:24:36.821Z,100.00
2024-04-30T03:27:05.425Z,100.00
2024-04-30T03:29:38.891Z,100.00
2024-04-30T03:32:07.260Z,100.00
2024-04-30T03:34:38.889Z,100.00
2024-04-30T03:37:09.613Z,100.00
2024-04-30T03:39:40.264Z,100.00
2024-04-30T03:42:11.911Z,100.00
2024-04-30T03:44:45.418Z,100.00
2024-04-30T03:47:16.020Z,100.00
2024-04-30T03:49:44.211Z,100.00
2024-04-30T03:52:15.201Z,100.00
2024-04-30T03:54:43.381Z,100.00
2024-04-30T03:57:15.198Z,100.00
2024-04-30T03:59:45.913Z,100.00
2024-04-30T04:02:16.759Z,100.00
2024-04-30T04:04:45.140Z,100.00
2024-04-30T04:07:16.077Z,100.00
2024-04-30T04:09:44.384Z,100.00
2024-04-30T04:12:31.104Z,100.00
2024-04-30T04:15:05.407Z,100.00
2024-04-30T04:17:36.457Z,100.00
2024-04-30T04:20:08.264Z,100.00
2024-04-30T04:22:39.389Z,100.00
2024-04-30T04:25:08.324Z,100.00
2024-04-30T04:27:39.208Z,100.00
2024-04-30T04:30:11.000Z,100.00
2024-04-30T04:32:42.523Z,100.00
2024-04-30T04:35:11.264Z,100.00
2024-04-30T04:37:42.333Z,100.00
2024-04-30T04:40:10.781Z,100.00
2024-04-30T04:42:41.482Z,100.00
2024-04-30T04:45:12.479Z,100.00
2024-04-30T04:47:44.209Z,100.00
2024-04-30T04:50:13.710Z,100.00
2024-04-30T04:52:44.214Z,100.00
2024-04-30T04:55:12.271Z,100.00
2024-04-30T04:57:42.949Z,100.00
2024-04-30T05:00:15.111Z,100.00
2024-04-30T05:02:45.699Z,100.00
2024-04-30T05:05:14.049Z,100.00
2024-04-30T05:07:47.746Z,100.00
2024-04-30T05:10:16.767Z,100.00
2024-04-30T05:12:47.417Z,100.00
2024-04-30T05:15:18.131Z,100.00
2024-04-30T05:17:48.861Z,100.00
2024-04-30T05:20:16.796Z,100.00
2024-04-30T05:22:47.426Z,100.00
2024-04-30T05:25:16.970Z,100.00
2024-04-30T05:27:47.713Z,100.00
2024-04-30T05:30:18.455Z,100.00
2024-04-30T05:32:49.109Z,100.00
2024-04-30T05:35:18.027Z,100.00
2024-04-30T05:37:48.698Z,100.00
2024-04-30T05:40:16.852Z,100.00
2024-04-30T05:42:47.450Z,100.00
2024-04-30T05:45:18.835Z,100.00
2024-04-30T05:47:49.903Z,100.00
2024-04-30T05:50:19.667Z,100.00
2024-04-30T05:52:50.594Z,100.00
2024-04-30T05:55:18.498Z,100.00
2024-04-30T05:57:49.049Z,100.00
2024-04-30T06:00:20.529Z,100.00
2024-04-30T06:02:51.294Z,100.00
2024-04-30T06:05:20.545Z,100.00
2024-04-30T06:07:51.215Z,100.00
2024-04-30T06:10:19.886Z,100.00
2024-04-30T06:12:50.456Z,100.00
2024-04-30T06:15:21.205Z,100.00
2024-04-30T06:17:52.014Z,100.00
2024-04-30T06:20:19.962Z,100.00
2024-04-30T06:22:50.532Z,100.00
2024-04-30T06:25:18.527Z,100.00
2024-04-30T06:27:49.509Z,100.00
2024-04-30T06:30:20.300Z,100.00
2024-04-30T06:32:52.695Z,100.00
2024-04-30T06:35:20.893Z,100.00
2024-04-30T06:37:56.385Z,100.00
2024-04-30T06:40:27.209Z,100.00
2024-04-30T06:42:59.325Z,100.00
2024-04-30T06:45:30.214Z,100.00
2024-04-30T06:48:01.379Z,100.00
2024-04-30T06:50:30.009Z,100.00
2024-04-30T06:53:00.555Z,100.00
2024-04-30T06:55:28.644Z,100.00
2024-04-30T06:57:59.398Z,100.00
2024-04-30T07:00:30.645Z,100.00
2024-04-30T07:03:01.518Z,100.00
2024-04-30T07:05:29.498Z,100.00
2024-04-30T07:08:00.318Z,100.00
2024-04-30T07:10:28.383Z,100.00
2024-04-30T07:13:00.734Z,100.00
2024-04-30T07:15:31.327Z,100.00
2024-04-30T07:18:01.986Z,100.00
2024-04-30T07:20:30.029Z,100.00
2024-04-30T07:23:00.688Z,100.00
2024-04-30T07:25:29.226Z,91.93
2024-04-30T07:27:59.874Z,90.90
2024-04-30T07:30:30.497Z,90.19
2024-04-30T07:33:01.881Z,87.54
2024-04-30T07:35:29.866Z,82.93
2024-04-30T07:38:00.457Z,80.99
2024-04-30T07:40:28.835Z,79.58
2024-04-30T07:42:59.446Z,74.49
2024-04-30T07:45:27.406Z,73.76
2024-04-30T07:48:01.708Z,69.31
2024-04-30T07:50:29.809Z,73.81
2024-04-30T07:53:00.342Z,70.54
2024-04-30T07:55:28.378Z,71.02
2024-04-30T07:57:58.913Z,66.88
2024-04-30T08:00:27.007Z,66.73
2024-04-30T08:03:00.287Z,70.06
2024-04-30T08:05:28.680Z,67.77
2024-04-30T08:08:00.515Z,62.70
2024-04-30T08:10:28.613Z,63.55
2024-04-30T08:12:59.212Z,65.58
2024-04-30T08:15:27.130Z,62.64
2024-04-30T08:18:01.663Z,59.57
2024-04-30T08:20:29.792Z,58.06
2024-04-30T08:23:00.335Z,58.61
2024-04-30T08:25:28.276Z,58.41
2024-04-30T08:27:59.122Z,56.59
2024-04-30T08:30:29.630Z,56.25
2024-04-30T08:33:01.945Z,57.34
2024-04-30T08:35:32.529Z,57.67
2024-04-30T08:38:01.496Z,57.09
2024-04-30T08:40:32.586Z,54.97
2024-04-30T08:43:00.886Z,56.21
2024-04-30T08:45:32.115Z,53.24
2024-04-30T08:48:07.807Z,53.99
2024-04-30T08:50:42.593Z,56.62
2024-04-30T08:53:13.063Z,53.04
2024-04-30T08:55:45.742Z,53.60
2024-04-30T08:58:13.860Z,50.92
2024-04-30T09:00:45.511Z,52.16
2024-04-30T09:03:17.728Z,50.94
2024-04-30T09:05:49.792Z,49.93
2024-04-30T09:08:20.508Z,49.71
2024-04-30T09:10:48.670Z,48.69
2024-04-30T09:13:20.146Z,48.41
2024-04-30T09:15:59.101Z,47.23
2024-04-30T09:18:33.671Z,49.34
2024-04-30T09:21:11.930Z,46.73
2024-04-30T09:23:47.611Z,46.53
2024-04-30T09:26:15.503Z,47.21
2024-04-30T09:28:46.024Z,46.45
2024-04-30T09:31:14.043Z,48.75
2024-04-30T09:33:57.671Z,44.65
2024-04-30T09:36:25.621Z,44.52
2024-04-30T09:38:57.900Z,44.52
2024-04-30T09:41:32.388Z,45.42
2024-04-30T09:44:05.295Z,45.72
2024-04-30T09:46:35.655Z,45.70
2024-04-30T09:49:10.488Z,47.21
2024-04-30T09:51:45.041Z,42.90
2024-04-30T09:54:25.550Z,43.32
2024-04-30T09:57:01.806Z,43.57
2024-04-30T09:59:29.807Z,42.40
2024-04-30T10:02:04.597Z,45.63
2024-04-30T10:04:37.061Z,42.08
2024-04-30T10:07:09.059Z,43.61
2024-04-30T10:09:37.014Z,40.83
2024-04-30T10:12:08.526Z,39.78
2024-04-30T10:14:37.394Z,40.09
2024-04-30T10:17:08.335Z,40.51
2024-04-30T10:19:50.040Z,40.42
2024-04-30T10:22:19.320Z,39.22
2024-04-30T10:24:49.959Z,39.40
2024-04-30T10:27:21.629Z,38.62
2024-04-30T10:29:52.535Z,39.15
2024-04-30T10:32:20.740Z,41.34
2024-04-30T10:35:03.081Z,40.22
2024-04-30T10:37:32.062Z,39.25
2024-04-30T10:40:13.074Z,38.71
2024-04-30T10:42:41.065Z,37.23
2024-04-30T10:45:12.126Z,38.31
2024-04-30T10:47:40.049Z,39.46
2024-04-30T10:50:18.879Z,38.02
2024-04-30T10:52:50.800Z,37.46
2024-04-30T10:55:19.604Z,38.81
2024-04-30T10:57:50.355Z,38.44
2024-04-30T11:00:18.244Z,37.76
2024-04-30T11:02:50.712Z,38.27
2024-04-30T11:05:24.700Z,37.59
2024-04-30T11:07:59.804Z,35.77
2024-04-30T11:10:34.736Z,38.14
2024-04-30T11:13:04.886Z,36.97
2024-04-30T11:15:35.457Z,36.07
2024-04-30T11:18:03.522Z,35.32
2024-04-30T11:20:36.815Z,35.70
2024-04-30T11:23:05.064Z,36.82
2024-04-30T11:25:36.121Z,37.84
2024-04-30T11:28:04.701Z,36.33
2024-04-30T11:30:35.401Z,35.95
2024-04-30T11:33:03.673Z,36.71
2024-04-30T11:35:37.360Z,34.24
2024-04-30T11:38:08.329Z,35.32
2024-04-30T11:40:36.324Z,35.36
2024-04-30T11:43:07.203Z,35.05
2024-04-30T11:45:35.471Z,35.77
2024-04-30T11:48:06.377Z,34.75
2024-04-30T11:50:37.147Z,34.95
2024-04-30T11:53:08.416Z,37.60
2024-04-30T11:55:36.562Z,35.40
2024-04-30T11:58:08.352Z,36.34
2024-04-30T12:00:39.303Z,35.71
2024-04-30T12:03:11.027Z,34.26
2024-04-30T12:05:42.076Z,34.39
2024-04-30T12:08:13.911Z,31.08
2024-04-30T12:10:42.186Z,32.55
2024-04-30T12:13:13.025Z,33.04
2024-04-30T12:15:41.096Z,32.17
2024-04-30T12:18:11.797Z,35.72
2024-04-30T12:20:42.694Z,33.90
2024-04-30T12:23:13.468Z,32.46
2024-04-30T12:25:41.524Z,33.46
2024-04-30T12:28:12.176Z,31.58
2024-04-30T12:30:40.104Z,33.17
2024-04-30T12:33:10.999Z,32.01
2024-04-30T12:35:41.717Z,30.47
2024-04-30T12:38:12.337Z,30.37
2024-04-30T12:40:40.548Z,30.68
2024-04-30T12:43:11.415Z,29.93
2024-04-30T12:45:39.517Z,31.90
2024-04-30T12:48:12.523Z,29.54
2024-04-30T12:50:43.335Z,30.17
2024-04-30T12:53:14.476Z,28.93
2024-04-30T12:55:44.566Z,27.96
2024-04-30T12:58:17.948Z,27.93
2024-04-30T13:00:53.341Z,29.07
2024-04-30T13:03:24.263Z,28.59
2024-04-30T13:05:54.923Z,29.41
2024-04-30T13:08:25.524Z,27.07
2024-04-30T13:10:54.145Z,28.67
2024-04-30T13:13:48.936Z,28.16
2024-04-30T13:16:17.667Z,26.92
2024-04-30T13:18:48.328Z,26.45
2024-04-30T13:21:25.463Z,27.76
2024-04-30T13:23:53.542Z,26.41
2024-04-30T13:26:24.335Z,25.42
2024-04-30T13:28:52.258Z,23.37
2024-04-30T13:31:23.682Z,23.95
2024-04-30T13:33:51.736Z,22.85
2024-04-30T13:36:26.697Z,24.93
2024-04-30T13:38:55.399Z,23.95
2024-04-30T13:41:26.312Z,24.19
2024-04-30T13:43:54.481Z,22.81
2024-04-30T13:46:26.307Z,22.21
2024-04-30T13:48:55.078Z,23.30
2024-04-30T13:51:31.528Z,22.96
2024-04-30T13:53:59.587Z,21.25
2024-04-30T13:56:30.555Z,21.17
2024-04-30T13:58:58.916Z,21.82
2024-04-30T14:01:29.692Z,21.13
2024-04-30T14:03:57.871Z,21.03
2024-04-30T14:06:31.178Z,22.30
2024-04-30T14:09:01.261Z,21.35
2024-04-30T14:11:32.807Z,21.58
2024-04-30T14:14:05.689Z,20.63
2024-04-30T14:16:37.624Z,21.22
2024-04-30T14:19:05.843Z,19.75
2024-04-30T14:21:39.258Z,20.65
2024-04-30T14:24:07.672Z,21.09
2024-04-30T14:26:38.327Z,20.26
2024-04-30T14:29:10.413Z,20.46
2024-04-30T14:31:41.394Z,19.39
2024-04-30T14:34:09.770Z,19.97
2024-04-30T14:36:45.931Z,19.15
2024-04-30T14:39:23.889Z,18.81
2024-04-30T14:41:57.986Z,19.05
2024-04-30T14:44:27.806Z,18.95
2024-04-30T14:46:59.537Z,19.94
2024-04-30T14:49:27.545Z,20.96
2024-04-30T14:52:01.333Z,21.11
2024-04-30T14:54:29.744Z,20.55
2024-04-30T14:57:00.816Z,21.88
2024-04-30T14:59:30.386Z,21.75
2024-04-30T15:02:02.402Z,21.60
2024-04-30T15:04:30.718Z,21.47
2024-04-30T15:07:03.974Z,21.42
2024-04-30T15:09:35.277Z,20.74
2024-04-30T15:12:06.607Z,20.41
2024-04-30T15:14:35.136Z,20.58
2024-04-30T15:17:06.091Z,21.52
2024-04-30T15:19:34.341Z,21.37
2024-04-30T15:22:09.593Z,23.27
2024-04-30T15:24:38.536Z,21.62
2024-04-30T15:27:09.088Z,21.97
2024-04-30T15:29:36.916Z,23.21
2024-04-30T15:32:08.431Z,22.10
2024-04-30T15:34:41.047Z,23.08
2024-04-30T15:37:31.216Z,23.45
2024-04-30T15:39:59.076Z,23.41
2024-04-30T15:42:29.735Z,24.47
2024-04-30T15:44:57.965Z,24.74
2024-04-30T15:47:28.730Z,23.97
2024-04-30T15:49:59.421Z,24.23
2024-04-30T15:52:47.910Z,24.41
2024-04-30T15:55:18.789Z,25.33
2024-04-30T15:57:47.124Z,25.54
2024-04-30T16:00:19.107Z,26.46
2024-04-30T16:02:47.162Z,26.67
2024-04-30T16:05:19.562Z,27.40
2024-04-30T16:07:53.262Z,27.43
2024-04-30T16:10:24.573Z,28.69
2024-04-30T16:12:53.422Z,27.63
2024-04-30T16:15:25.277Z,28.58
2024-04-30T16:17:58.168Z,27.19
2024-04-30T16:20:34.963Z,29.32
2024-04-30T16:23:09.119Z,28.11
2024-04-30T16:25:45.044Z,28.22
2024-04-30T16:28:24.006Z,28.22
2024-04-30T16:30:57.955Z,28.41
2024-04-30T16:33:27.570Z,29.23
2024-04-30T16:35:59.661Z,28.50
2024-04-30T16:39:12.166Z,29.76
2024-04-30T16:42:38.173Z,29.35
2024-04-30T16:45:12.892Z,29.77
2024-04-30T16:47:44.086Z,31.58
2024-04-30T16:50:17.020Z,30.72
2024-04-30T16:52:46.758Z,32.14
2024-04-30T16:55:20.588Z,32.76
2024-04-30T16:57:48.776Z,34.00
2024-04-30T17:00:20.745Z,34.11
2024-04-30T17:02:49.094Z,33.30
2024-04-30T17:05:19.837Z,34.45
2024-04-30T17:07:52.463Z,36.98
2024-04-30T17:10:42.932Z,36.68
2024-04-30T17:13:11.681Z,34.38
2024-04-30T17:15:46.828Z,34.38
2024-04-30T17:18:15.351Z,35.00
2024-04-30T17:20:47.754Z,35.09
2024-04-30T17:23:17.575Z,35.71
2024-04-30T17:25:51.246Z,36.55
2024-04-30T17:28:22.692Z,37.62
2024-04-30T17:30:54.004Z,38.27
2024-04-30T17:33:22.992Z,38.81
2024-04-30T17:35:53.767Z,39.56
2024-04-30T17:38:22.867Z,37.80
2024-04-30T17:40:57.680Z,38.67
2024-04-30T17:43:28.199Z,38.48
2024-04-30T17:45:59.035Z,40.04
2024-04-30T17:48:28.838Z,39.31
2024-04-30T17:50:59.731Z,38.73
2024-04-30T17:53:27.764Z,37.06
2024-04-30T17:56:05.181Z,36.82
2024-04-30T17:58:33.121Z,37.16
2024-04-30T18:01:04.175Z,38.47
2024-04-30T18:03:36.106Z,38.59
2024-04-30T18:06:06.281Z,41.01
2024-04-30T18:08:37.085Z,40.35
2024-04-30T18:11:13.238Z,40.03
2024-04-30T18:13:46.502Z,40.41
2024-04-30T18:16:14.932Z,41.22
2024-04-30T18:18:48.624Z,42.10
2024-04-30T18:21:17.392Z,43.08
2024-04-30T18:23:48.043Z,43.48
2024-04-30T18:26:21.655Z,44.62
2024-04-30T18:28:55.158Z,45.17
2024-04-30T18:31:28.042Z,44.87
2024-04-30T18:33:56.906Z,45.54
2024-04-30T18:36:27.923Z,46.47
2024-04-30T18:38:56.181Z,46.32
2024-04-30T18:41:31.201Z,46.14
2024-04-30T18:43:59.945Z,46.24
2024-04-30T18:46:31.357Z,47.95
2024-04-30T18:48:59.617Z,47.36
2024-04-30T18:51:30.494Z,47.02
2024-04-30T18:53:58.540Z,48.24
2024-04-30T18:56:31.885Z,48.42
2024-04-30T18:58:59.955Z,48.99
2024-04-30T19:01:30.680Z,50.54
2024-04-30T19:03:58.813Z,51.60
2024-04-30T19:06:32.111Z,50.90
2024-04-30T19:09:00.197Z,51.36
2024-04-30T19:11:33.759Z,52.40
2024-04-30T19:14:02.080Z,51.77
2024-04-30T19:16:32.902Z,50.99
2024-04-30T19:19:02.847Z,52.59
2024-04-30T19:21:33.682Z,53.49
2024-04-30T19:24:01.654Z,54.28
2024-04-30T19:26:35.218Z,54.13
2024-04-30T19:29:03.363Z,54.43
2024-04-30T19:31:34.206Z,55.99
2024-04-30T19:34:02.885Z,54.88
2024-04-30T19:36:33.829Z,53.67
2024-04-30T19:39:02.116Z,55.50
2024-04-30T19:41:36.874Z,56.02
2024-04-30T19:44:05.122Z,57.25
2024-04-30T19:46:36.121Z,55.56
2024-04-30T19:49:04.527Z,55.79
2024-04-30T19:51:35.298Z,55.11
2024-04-30T19:54:03.647Z,56.49
2024-04-30T19:56:37.061Z,56.33
2024-04-30T19:59:16.521Z,58.85
2024-04-30T20:01:45.323Z,58.36
2024-04-30T20:04:16.963Z,57.40
2024-04-30T20:06:45.782Z,58.11
2024-04-30T20:09:20.499Z,59.15
2024-04-30T20:11:52.286Z,58.85
2024-04-30T20:14:23.361Z,60.75
2024-04-30T20:16:51.548Z,60.43
2024-04-30T20:19:23.210Z,60.33
2024-04-30T20:21:51.658Z,60.92
2024-04-30T20:24:23.526Z,60.85
2024-04-30T20:26:59.038Z,61.59
2024-04-30T20:29:32.827Z,62.50
2024-04-30T20:32:01.376Z,60.58
2024-04-30T20:34:32.299Z,60.09
2024-04-30T20:37:00.464Z,60.42
2024-04-30T20:39:31.859Z,62.27
2024-04-30T20:42:03.004Z,62.49
2024-04-30T20:44:34.323Z,61.53
2024-04-30T20:47:02.656Z,63.35
2024-04-30T20:49:33.667Z,63.86
2024-04-30T20:52:04.018Z,63.52
2024-04-30T20:54:38.441Z,63.81
2024-04-30T20:57:10.676Z,65.69
2024-04-30T20:59:44.830Z,66.17
2024-04-30T21:02:13.421Z,66.53
2024-04-30T21:04:44.810Z,67.05
2024-04-30T21:07:14.194Z,68.32
2024-04-30T21:09:46.000Z,67.33
2024-04-30T21:12:19.275Z,67.80
2024-04-30T21:14:50.926Z,67.53
2024-04-30T21:17:19.291Z,66.20
2024-04-30T21:19:52.597Z,67.91
2024-04-30T21:22:23.005Z,68.27
2024-04-30T21:24:56.218Z,68.92
2024-04-30T21:27:27.376Z,69.12
2024-04-30T21:30:00.651Z,69.81
2024-04-30T21:32:31.353Z,70.49
2024-04-30T21:35:04.736Z,71.56
2024-04-30T21:37:33.773Z,70.00
2024-04-30T21:40:06.299Z,71.29
2024-04-30T21:42:38.221Z,71.54
2024-04-30T21:45:11.224Z,72.48
2024-04-30T21:47:39.320Z,72.04
2024-04-30T21:50:10.658Z,73.05
2024-04-30T21:52:39.498Z,72.26
2024-04-30T21:55:10.438Z,72.33
2024-04-30T21:57:43.813Z,72.21
2024-04-30T22:00:14.620Z,73.50
2024-04-30T22:02:45.468Z,75.21
2024-04-30T22:05:13.645Z,75.58
2024-04-30T22:07:44.323Z,75.46
2024-04-30T22:10:15.082Z,76.68
2024-04-30T22:12:45.796Z,78.89
2024-04-30T22:15:16.741Z,79.70
2024-04-30T22:17:45.438Z,78.49
2024-04-30T22:20:16.260Z,79.03
2024-04-30T22:22:44.250Z,78.53
2024-04-30T22:25:14.843Z,76.04
2024-04-30T22:27:48.214Z,77.95
2024-04-30T22:30:20.046Z,77.96
2024-04-30T22:32:51.668Z,78.41
2024-04-30T22:35:19.685Z,78.08
2024-04-30T22:37:51.797Z,79.90
2024-04-30T22:40:22.786Z,79.16
2024-04-30T22:42:56.224Z,80.55
2024-04-30T22:45:24.370Z,81.29
2024-04-30T22:47:55.065Z,82.15
2024-04-30T22:50:23.070Z,81.01
2024-04-30T22:52:53.681Z,81.79
2024-04-30T22:55:21.822Z,82.57
2024-04-30T22:57:52.802Z,82.22
2024-04-30T23:00:23.907Z,81.97
2024-04-30T23:02:54.943Z,81.12
2024-04-30T23:05:23.316Z,81.03
2024-04-30T23:07:54.122Z,81.69
2024-04-30T23:10:22.339Z,80.89
2024-04-30T23:12:53.359Z,80.95
2024-04-30T23:15:24.240Z,81.79
2024-04-30T23:17:55.152Z,84.20
2024-04-30T23:20:24.373Z,84.18
2024-04-30T23:22:55.036Z,84.60
2024-04-30T23:25:22.998Z,84.48
2024-04-30T23:27:53.846Z,84.52
2024-04-30T23:30:24.706Z,83.53
2024-04-30T23:32:55.678Z,82.77
2024-04-30T23:35:23.850Z,83.48
2024-04-30T23:37:54.551Z,84.41
2024-04-30T23:40:22.644Z,84.02
2024-04-30T23:42:53.484Z,84.91
2024-04-30T23:45:26.856Z,84.92
2024-04-30T23:47:57.556Z,84.91
2024-04-30T23:50:25.680Z,85.12
2024-04-30T23:52:56.263Z,84.36
2024-04-30T23:55:24.250Z,84.86
2024-04-30T23:57:55.009Z,84.88
